Time;durP1;ratioP1;P1;durP2;ratioP2;P2;SDS_P1;SDS_P2;PMS_P1;PMS_P2;Temp;Humidity;BMP_temperature;BMP_pressure;BME280_temperature;BME280_humidity;BME280_pressure;Samples;Min_cycle;Max_cycle;Signal;HPM_P1;HPM_P2
2022/02/18 00:00:56;;;;;;;5.68;2.20;;;4.80;99.90;;;;;;5094230;28;20104;-74
2022/02/18 00:03:24;;;;;;;5.50;1.95;;;4.80;99.90;;;;;;5094867;28;20526;-74
2022/02/18 00:05:50;;;;;;;10.02;3.53;;;5.00;99.90;;;;;;5094389;28;20036;-79
2022/02/18 00:08:16;;;;;;;9.75;3.28;;;5.20;99.90;;;;;;5076725;28;20032;-75
2022/02/18 00:10:42;;;;;;;2.92;1.02;;;5.30;99.90;;;;;;5094734;28;20035;-76
2022/02/18 00:13:09;;;;;;;5.85;1.10;;;5.40;99.90;;;;;;5094493;28;20414;-74
2022/02/18 00:15:34;;;;;;;8.07;1.20;;;5.50;99.90;;;;;;5094622;28;20492;-73
2022/02/18 00:18:02;;;;;;;4.18;1.20;;;5.60;99.90;;;;;;5094289;28;20119;-75
2022/02/18 00:20:28;;;;;;;5.40;1.50;;;5.80;99.90;;;;;;5094759;28;20016;-75
2022/02/18 00:22:54;;;;;;;13.25;2.35;;;6.10;98.20;;;;;;5094413;28;20023;-75
2022/02/18 00:25:20;;;;;;;11.32;2.65;;;6.10;97.70;;;;;;5094259;28;20036;-78
2022/02/18 00:27:45;;;;;;;9.95;2.92;;;6.10;97.20;;;;;;5094287;28;20378;-75
2022/02/18 00:30:12;;;;;;;9.40;2.30;;;6.30;96.40;;;;;;5094512;28;20054;-76
2022/02/18 00:32:38;;;;;;;8.13;1.67;;;6.30;96.20;;;;;;5094356;28;20478;-77
2022/02/18 00:35:05;;;;;;;6.88;1.80;;;6.40;95.50;;;;;;5094299;28;20039;-76
2022/02/18 00:37:31;;;;;;;7.95;2.60;;;6.40;95.30;;;;;;5093988;28;20052;-73
2022/02/18 00:39:56;;;;;;;12.48;3.08;;;6.30;95.30;;;;;;5093983;28;20481;-74
2022/02/18 00:42:23;;;;;;;9.43;2.90;;;6.40;95.20;;;;;;5093899;28;20024;-75
2022/02/18 00:44:49;;;;;;;14.77;2.70;;;6.40;94.60;;;;;;5093802;28;20036;-73
2022/02/18 00:47:14;;;;;;;12.85;3.03;;;6.30;94.30;;;;;;5094020;28;20378;-76
2022/02/18 00:49:40;;;;;;;14.00;2.58;;;6.30;94.20;;;;;;5093856;28;20426;-76
2022/02/18 00:52:06;;;;;;;6.80;3.13;;;6.30;94.00;;;;;;5093922;28;20099;-75
2022/02/18 00:54:32;;;;;;;7.50;1.75;;;6.30;93.80;;;;;;5093721;28;20063;-74
2022/02/18 00:56:58;;;;;;;8.20;2.38;;;6.20;93.80;;;;;;5093838;28;20035;-77
2022/02/18 00:59:24;;;;;;;5.78;1.33;;;6.20;93.70;;;;;;5094064;28;20034;-76
2022/02/18 01:01:50;;;;;;;10.77;1.30;;;6.10;93.90;;;;;;5093815;28;20044;-80
2022/02/18 01:04:16;;;;;;;7.22;1.20;;;6.00;94.20;;;;;;5093585;28;20081;-76
2022/02/18 01:06:42;;;;;;;8.57;1.95;;;5.80;94.60;;;;;;5093565;28;20031;-75
2022/02/18 01:09:08;;;;;;;4.18;1.20;;;5.60;95.10;;;;;;5093456;28;20028;-77
2022/02/18 01:11:34;;;;;;;4.20;0.85;;;5.50;95.70;;;;;;5092705;28;20467;-77
2022/02/18 01:14:00;;;;;;;3.78;1.10;;;5.20;96.30;;;;;;5075446;28;20032;-77
2022/02/18 01:16:27;;;;;;;5.38;0.93;;;4.90;96.90;;;;;;5093324;28;20024;-76
2022/02/18 01:18:53;;;;;;;2.90;0.70;;;4.80;97.50;;;;;;5093377;28;20067;-79
2022/02/18 01:21:19;;;;;;;4.53;0.90;;;4.60;98.10;;;;;;5093556;28;20016;-76
2022/02/18 01:23:46;;;;;;;6.10;1.00;;;4.40;98.70;;;;;;5093366;28;20518;-77
2022/02/18 01:26:11;;;;;;;2.20;0.80;;;4.20;99.50;;;;;;5093149;28;20039;-74
2022/02/18 01:28:37;;;;;;;3.17;0.82;;;4.10;99.90;;;;;;5075107;28;20024;-76
2022/02/18 01:31:03;;;;;;;3.88;0.65;;;3.90;99.90;;;;;;5093453;28;20027;-74
2022/02/18 01:33:29;;;;;;;2.08;0.65;;;3.80;99.90;;;;;;5093400;28;20053;-74
2022/02/18 01:35:54;;;;;;;1.85;0.77;;;3.70;99.90;;;;;;5074802;28;20396;-73
2022/02/18 01:38:20;;;;;;;8.63;1.83;;;3.60;99.90;;;;;;5075105;28;20070;-73
2022/02/18 01:40:46;;;;;;;5.93;2.10;;;3.50;99.90;;;;;;5093070;28;20021;-77
2022/02/18 01:43:12;;;;;;;9.43;2.55;;;3.50;99.90;;;;;;5092953;28;20495;-73
2022/02/18 01:45:37;;;;;;;4.10;1.45;;;3.40;99.90;;;;;;5074915;28;20517;-74
2022/02/18 01:48:03;;;;;;;6.38;2.30;;;3.30;99.90;;;;;;5092959;28;20026;-76
2022/02/18 01:50:29;;;;;;;7.65;2.13;;;3.40;99.90;;;;;;5074741;28;20382;-78
2022/02/18 01:52:56;;;;;;;7.22;2.72;;;3.30;99.90;;;;;;5092660;28;20073;-73
2022/02/18 01:55:23;;;;;;;11.27;3.30;;;3.30;99.90;;;;;;5092735;28;20516;-77
2022/02/18 01:57:50;;;;;;;7.45;2.47;;;3.40;99.90;;;;;;5092542;28;20055;-74
2022/02/18 02:00:19;;;;;;;8.40;1.23;;;3.40;99.90;;;;;;5092644;28;20417;-75
2022/02/18 02:02:46;;;;;;;3.30;0.80;;;3.20;99.90;;;;;;5092656;28;20027;-76
2022/02/18 02:05:11;;;;;;;3.20;0.88;;;3.20;99.90;;;;;;5092771;28;20110;-76
2022/02/18 02:07:39;;;;;;;3.53;1.33;;;3.10;99.90;;;;;;5092644;28;20158;-77
2022/02/18 02:10:06;;;;;;;4.55;0.90;;;3.00;99.90;;;;;;5092555;28;20040;-76
2022/02/18 02:12:38;;;;;;;6.57;1.05;;;2.90;99.90;;;;;;5092710;28;20024;-80
2022/02/18 02:15:06;;;;;;;6.03;0.70;;;2.80;99.90;;;;;;5092228;28;20016;-73
2022/02/18 02:17:32;;;;;;;5.80;0.82;;;2.70;99.90;;;;;;5075758;28;20152;-78
2022/02/18 02:19:58;;;;;;;6.03;0.80;;;2.60;99.90;;;;;;5095381;28;20063;-77
2022/02/18 02:22:30;;;;;;;3.25;1.23;;;2.50;99.90;;;;;;5094593;28;20051;-77
2022/02/18 02:24:56;;;;;;;2.45;0.70;;;2.30;99.90;;;;;;5094104;28;20101;-79
2022/02/18 02:27:22;;;;;;;3.90;0.90;;;2.20;99.90;;;;;;5092588;28;20027;-76
2022/02/18 02:29:49;;;;;;;6.05;1.15;;;2.10;99.90;;;;;;5092385;28;20024;-75
2022/02/18 02:32:15;;;;;;;4.22;0.93;;;2.10;99.90;;;;;;5092263;28;20016;-76
2022/02/18 02:34:41;;;;;;;5.43;0.90;;;2.10;99.90;;;;;;5092328;28;20031;-73
2022/02/18 02:37:06;;;;;;;3.75;1.17;;;2.00;99.90;;;;;;5092358;28;20019;-74
2022/02/18 02:39:33;;;;;;;6.50;0.90;;;2.10;99.90;;;;;;5092201;28;20024;-74
2022/02/18 02:42:00;;;;;;;2.78;0.80;;;1.90;99.90;;;;;;5092302;28;20122;-74
2022/02/18 02:44:27;;;;;;;5.93;1.00;;;1.90;99.90;;;;;;5073733;28;20024;-73
2022/02/18 02:46:53;;;;;;;4.78;0.70;;;1.90;99.90;;;;;;5074240;28;20024;-74
2022/02/18 02:49:18;;;;;;;5.05;0.65;;;1.80;99.90;;;;;;5074172;28;20012;-73
2022/02/18 02:51:44;;;;;;;4.35;0.70;;;1.80;99.90;;;;;;5092246;28;20024;-73
2022/02/18 02:54:10;;;;;;;2.75;0.90;;;1.80;99.90;;;;;;5092360;28;20026;-74
2022/02/18 02:56:35;;;;;;;9.02;1.65;;;1.70;99.90;;;;;;5091956;28;20024;-75
2022/02/18 02:59:01;;;;;;;8.27;2.88;;;1.70;99.90;;;;;;5092015;28;20024;-74
2022/02/18 03:01:27;;;;;;;5.60;2.22;;;1.60;99.90;;;;;;5092114;28;20027;-74
2022/02/18 03:03:53;;;;;;;6.07;2.70;;;1.60;99.90;;;;;;5073773;28;20378;-77
2022/02/18 03:06:18;;;;;;;7.75;1.95;;;1.60;99.90;;;;;;5092009;28;20058;-77
2022/02/18 03:08:44;;;;;;;4.95;2.28;;;1.60;99.90;;;;;;5092132;28;20028;-76
2022/02/18 03:11:15;;;;;;;9.27;2.85;;;1.60;99.90;;;;;;5073870;28;20122;-75
2022/02/18 03:13:52;;;;;;;3.28;1.25;;;1.60;99.90;;;;;;5091920;28;20104;-73
2022/02/18 03:16:19;;;;;;;4.10;0.88;;;1.60;99.90;;;;;;5091971;28;20491;-74
2022/02/18 03:18:45;;;;;;;1.42;0.60;;;1.60;99.90;;;;;;5091550;28;20082;-74
2022/02/18 03:21:12;;;;;;;2.65;0.80;;;1.60;99.90;;;;;;5073803;28;20024;-73
2022/02/18 03:23:38;;;;;;;6.68;1.10;;;1.60;99.90;;;;;;5091739;28;20028;-74
2022/02/18 03:26:06;;;;;;;2.28;0.90;;;1.60;99.90;;;;;;5091568;28;20033;-76
2022/02/18 03:28:31;;;;;;;2.83;1.13;;;1.60;99.90;;;;;;5091737;28;20024;-76
2022/02/18 03:30:59;;;;;;;5.10;1.42;;;1.60;99.90;;;;;;5091992;28;20032;-74
2022/02/18 03:33:25;;;;;;;4.88;0.88;;;1.70;99.90;;;;;;5091891;28;20414;-75
2022/02/18 03:35:51;;;;;;;5.80;1.33;;;1.80;99.90;;;;;;5094386;28;20402;-78
2022/02/18 03:38:17;;;;;;;7.40;1.23;;;1.70;99.90;;;;;;5095351;28;20104;-76
2022/02/18 03:40:43;;;;;;;2.13;1.10;;;1.80;99.90;;;;;;5095531;28;20044;-73
2022/02/18 03:43:09;;;;;;;7.68;2.00;;;1.80;99.90;;;;;;5095181;28;20032;-77
2022/02/18 03:45:35;;;;;;;3.60;1.23;;;1.90;99.90;;;;;;5076911;28;20552;-73
2022/02/18 03:48:01;;;;;;;3.95;0.90;;;1.90;99.90;;;;;;5094985;28;20012;-73
2022/02/18 03:50:27;;;;;;;2.92;0.50;;;1.90;99.90;;;;;;5095132;28;20050;-75
2022/02/18 03:52:53;;;;;;;3.35;0.95;;;1.90;99.90;;;;;;5095044;28;20402;-75
2022/02/18 03:55:20;;;;;;;2.72;0.60;;;1.90;99.90;;;;;;5095150;28;20024;-74
2022/02/18 03:57:45;;;;;;;4.70;0.95;;;1.90;99.90;;;;;;5094855;28;20073;-75
2022/02/18 04:00:11;;;;;;;2.83;0.60;;;1.90;99.90;;;;;;5095230;28;20028;-75
2022/02/18 04:02:37;;;;;;;5.78;0.93;;;1.80;99.90;;;;;;5094921;28;20020;-74
2022/02/18 04:05:04;;;;;;;11.27;0.90;;;1.80;99.90;;;;;;5094814;28;20108;-78
2022/02/18 04:07:29;;;;;;;4.63;0.77;;;1.80;99.90;;;;;;5094905;28;20016;-74
2022/02/18 04:09:55;;;;;;;1.85;0.50;;;1.80;99.90;;;;;;5094821;28;20024;-76
2022/02/18 04:12:21;;;;;;;5.47;1.95;;;1.70;99.90;;;;;;5094662;28;20362;-77
2022/02/18 04:14:47;;;;;;;4.03;1.08;;;1.70;99.90;;;;;;5076197;28;20044;-73
2022/02/18 04:17:13;;;;;;;3.05;1.30;;;1.70;99.90;;;;;;5094413;28;21625;-77
2022/02/18 04:19:38;;;;;;;3.95;0.55;;;1.70;99.90;;;;;;5094810;28;20405;-74
2022/02/18 04:22:04;;;;;;;3.17;0.93;;;1.70;99.90;;;;;;5094677;28;20028;-75
2022/02/18 04:24:30;;;;;;;2.90;1.05;;;1.70;99.90;;;;;;5076085;28;20390;-74
2022/02/18 04:26:56;;;;;;;5.85;0.90;;;1.60;99.90;;;;;;5094329;28;20028;-76
2022/02/18 04:29:22;;;;;;;1.77;0.82;;;1.60;99.90;;;;;;5094567;28;20085;-73
2022/02/18 04:31:47;;;;;;;3.95;1.05;;;1.60;99.90;;;;;;5094439;28;20441;-74
2022/02/18 04:34:13;;;;;;;2.00;1.10;;;1.50;99.90;;;;;;5094121;28;20352;-74
2022/02/18 04:36:39;;;;;;;2.50;0.55;;;1.50;99.90;;;;;;5094063;28;20078;-75
2022/02/18 04:39:05;;;;;;;5.25;0.98;;;1.40;99.90;;;;;;5094267;28;20471;-75
2022/02/18 04:41:30;;;;;;;0.90;0.55;;;1.40;99.90;;;;;;5094305;28;20031;-74
2022/02/18 04:43:56;;;;;;;5.38;2.42;;;1.40;99.90;;;;;;5094097;28;20060;-73
2022/02/18 04:46:22;;;;;;;5.20;2.35;;;1.30;99.90;;;;;;5093227;28;20062;-76
2022/02/18 04:48:47;;;;;;;4.43;1.20;;;1.30;99.90;;;;;;5094057;28;20051;-74
2022/02/18 04:51:13;;;;;;;10.65;5.13;;;1.30;99.90;;;;;;5094221;28;20471;-78
2022/02/18 04:53:38;;;;;;;5.03;2.90;;;1.20;99.90;;;;;;5093911;28;20407;-77
2022/02/18 04:56:07;;;;;;;8.82;3.72;;;1.20;99.90;;;;;;5094193;28;20107;-75
2022/02/18 04:58:33;;;;;;;7.88;3.05;;;1.20;99.90;;;;;;5093997;28;20020;-74
2022/02/18 05:00:59;;;;;;;5.05;1.23;;;1.20;99.90;;;;;;5094063;28;20020;-75
2022/02/18 05:03:25;;;;;;;9.32;5.38;;;1.10;99.90;;;;;;5093796;28;20362;-75
2022/02/18 05:05:51;;;;;;;14.55;8.32;;;1.10;99.90;;;;;;5093750;28;20050;-75
2022/02/18 05:08:17;;;;;;;10.77;5.18;;;1.10;99.90;;;;;;5093920;28;20024;-74
2022/02/18 05:10:42;;;;;;;6.95;3.47;;;1.10;99.90;;;;;;5093892;28;20431;-74
2022/02/18 05:13:08;;;;;;;7.97;3.20;;;1.10;99.90;;;;;;5093597;28;20058;-79
2022/02/18 05:15:34;;;;;;;7.85;4.38;;;1.10;99.90;;;;;;5093689;28;20375;-75
2022/02/18 05:18:03;;;;;;;6.45;3.95;;;1.10;99.90;;;;;;5093707;28;20483;-78
2022/02/18 05:20:30;;;;;;;4.22;2.10;;;1.10;99.90;;;;;;5093800;28;20480;-76
2022/02/18 05:22:57;;;;;;;3.80;1.70;;;1.10;99.90;;;;;;5094339;28;20024;-80
2022/02/18 05:25:27;;;;;;;11.30;4.35;;;1.00;99.90;;;;;;5093610;28;20446;-79
2022/02/18 05:27:52;;;;;;;6.97;2.83;;;0.90;99.90;;;;;;5094031;28;20032;-76
2022/02/18 05:30:19;;;;;;;7.22;2.47;;;0.90;99.90;;;;;;5096114;28;20031;-77
2022/02/18 05:32:45;;;;;;;11.70;5.22;;;0.90;99.90;;;;;;5093774;28;20027;-77
2022/02/18 05:35:11;;;;;;;76.95;25.52;;;0.90;99.90;;;;;;5093277;28;20012;-78
2022/02/18 05:37:37;;;;;;;51.72;18.50;;;0.80;99.90;;;;;;5093408;28;20028;-75
2022/02/18 05:40:04;;;;;;;48.22;17.15;;;0.70;99.90;;;;;;5093339;28;20103;-78
2022/02/18 05:42:29;;;;;;;135.98;55.30;;;0.70;99.90;;;;;;5093090;28;20024;-79
2022/02/18 05:44:55;;;;;;;24.50;10.05;;;0.70;99.90;;;;;;5093125;28;20032;-75
2022/02/18 05:47:21;;;;;;;11.50;2.70;;;0.70;99.90;;;;;;5093206;28;20032;-77
2022/02/18 05:49:47;;;;;;;3.60;1.13;;;0.60;99.90;;;;;;5093081;28;20027;-74
2022/02/18 05:52:13;;;;;;;4.38;1.10;;;0.60;99.90;;;;;;5092810;28;20088;-76
2022/02/18 05:54:39;;;;;;;11.57;7.47;;;0.60;99.90;;;;;;5074787;28;20123;-77
2022/02/18 05:57:04;;;;;;;9.02;3.70;;;0.60;99.90;;;;;;5074997;28;20020;-78
2022/02/18 05:59:30;;;;;;;7.93;5.90;;;0.60;99.90;;;;;;5092398;28;20024;-73
2022/02/18 06:01:56;;;;;;;10.13;5.18;;;0.60;99.90;;;;;;5092864;28;20024;-77
2022/02/18 06:04:21;;;;;;;8.48;4.95;;;0.60;99.90;;;;;;5092685;28;20024;-74
2022/02/18 06:06:47;;;;;;;8.32;3.75;;;0.60;99.90;;;;;;5093512;28;20032;-79
2022/02/18 06:09:13;;;;;;;7.45;3.13;;;1.50;99.90;;;;;;5092770;28;20020;-77
2022/02/18 06:11:39;;;;;;;8.00;4.55;;;1.60;99.90;;;;;;5093045;28;20024;-78
2022/02/18 06:14:05;;;;;;;7.25;5.45;;;1.50;99.90;;;;;;5095941;28;20024;-74
2022/02/18 06:16:31;;;;;;;4.22;2.75;;;1.40;99.90;;;;;;5092731;28;20020;-75
2022/02/18 06:18:57;;;;;;;5.47;1.80;;;1.30;99.90;;;;;;5092709;28;20044;-75
2022/02/18 06:21:23;;;;;;;3.55;1.63;;;1.20;99.90;;;;;;5092860;28;20035;-74
2022/02/18 06:23:48;;;;;;;2.03;1.05;;;1.20;99.90;;;;;;5092323;28;20032;-77
2022/02/18 06:26:14;;;;;;;3.03;1.38;;;1.10;99.90;;;;;;5092388;28;20032;-78
2022/02/18 06:28:42;;;;;;;4.85;1.83;;;1.10;99.90;;;;;;5092620;28;20088;-77
2022/02/18 06:31:08;;;;;;;4.18;2.05;;;1.10;99.90;;;;;;5092663;28;20490;-75
2022/02/18 06:33:34;;;;;;;9.02;3.63;;;1.10;99.90;;;;;;5092604;28;20020;-76
2022/02/18 06:36:01;;;;;;;9.63;3.75;;;1.00;99.90;;;;;;5092492;28;20024;-75
2022/02/18 06:38:27;;;;;;;6.32;3.38;;;1.00;99.90;;;;;;5074627;28;20017;-76
2022/02/18 06:40:53;;;;;;;10.32;4.43;;;1.00;99.90;;;;;;5092650;28;20084;-75
2022/02/18 06:43:18;;;;;;;11.40;5.30;;;1.00;99.90;;;;;;5092683;28;20483;-76
2022/02/18 06:45:44;;;;;;;8.63;4.38;;;1.00;99.90;;;;;;5092530;28;20039;-75
2022/02/18 06:48:10;;;;;;;10.55;5.13;;;1.10;99.90;;;;;;5092360;28;20099;-75
2022/02/18 06:50:36;;;;;;;11.13;3.83;;;1.10;99.90;;;;;;5074454;28;20067;-76
2022/02/18 06:53:03;;;;;;;11.25;5.00;;;1.20;99.90;;;;;;5074379;28;20052;-74
2022/02/18 06:55:29;;;;;;;8.55;4.53;;;1.30;99.90;;;;;;5092204;28;20428;-74
2022/02/18 06:57:56;;;;;;;7.50;3.35;;;1.20;99.90;;;;;;5074298;28;20027;-76
2022/02/18 07:00:23;;;;;;;5.65;3.13;;;1.30;99.90;;;;;;5092454;28;20020;-77
2022/02/18 07:02:49;;;;;;;8.18;3.75;;;1.30;99.90;;;;;;5092332;28;20044;-74
2022/02/18 07:05:16;;;;;;;11.68;3.72;;;1.40;99.90;;;;;;5092054;28;20074;-75
2022/02/18 07:07:42;;;;;;;7.45;3.38;;;1.50;99.90;;;;;;5092289;28;20042;-75
2022/02/18 07:10:10;;;;;;;7.32;4.18;;;1.50;99.90;;;;;;5094110;28;20112;-76
2022/02/18 07:12:37;;;;;;;7.68;3.45;;;1.60;99.90;;;;;;5078212;28;20020;-76
2022/02/18 07:15:04;;;;;;;7.60;3.38;;;1.60;99.90;;;;;;5078459;28;20028;-78
2022/02/18 07:17:31;;;;;;;10.82;5.20;;;1.70;99.90;;;;;;5077845;28;20048;-74
2022/02/18 07:19:57;;;;;;;10.88;4.72;;;1.80;99.90;;;;;;5095936;28;20063;-74
2022/02/18 07:22:24;;;;;;;6.97;3.95;;;2.20;99.90;;;;;;5095920;28;20060;-75
2022/02/18 07:24:51;;;;;;;10.32;3.97;;;3.10;99.90;;;;;;5095301;28;20093;-76
2022/02/18 07:27:17;;;;;;;12.35;3.67;;;3.90;99.90;;;;;;5076854;28;20042;-79
2022/02/18 07:29:43;;;;;;;19.30;4.70;;;4.60;99.90;;;;;;5077275;28;20035;-75
2022/02/18 07:32:10;;;;;;;14.95;6.32;;;5.00;99.90;;;;;;5095421;28;20008;-76
2022/02/18 07:34:35;;;;;;;10.13;3.55;;;5.20;99.90;;;;;;5081718;28;20478;-78
2022/02/18 07:37:01;;;;;;;6.95;4.22;;;4.70;99.90;;;;;;5110169;28;20024;-76
2022/02/18 07:39:27;;;;;;;17.30;5.43;;;4.10;99.90;;;;;;5093703;28;20024;-76
2022/02/18 07:41:52;;;;;;;8.82;4.47;;;3.80;99.90;;;;;;5111781;28;20043;-77
2022/02/18 07:44:18;;;;;;;12.35;3.67;;;3.70;99.90;;;;;;5111415;28;20020;-74
2022/02/18 07:46:44;;;;;;;9.73;4.03;;;3.50;99.90;;;;;;5107703;28;20052;-79
2022/02/18 07:49:11;;;;;;;10.95;3.85;;;3.50;99.90;;;;;;5098216;28;20040;-74
2022/02/18 07:51:40;;;;;;;11.82;4.65;;;3.40;99.90;;;;;;5098636;28;20031;-76
2022/02/18 07:54:08;;;;;;;7.65;3.15;;;3.40;99.90;;;;;;5096567;28;20375;-75
2022/02/18 07:56:33;;;;;;;7.53;3.35;;;3.50;99.90;;;;;;5095418;28;20024;-76
2022/02/18 07:58:59;;;;;;;11.88;4.05;;;3.60;99.90;;;;;;5095489;28;20031;-73
2022/02/18 08:01:25;;;;;;;8.45;3.80;;;3.60;99.90;;;;;;5096316;28;20032;-75
2022/02/18 08:03:52;;;;;;;15.10;4.82;;;3.80;99.90;;;;;;5095090;28;20016;-76
2022/02/18 08:06:19;;;;;;;9.68;3.97;;;4.10;99.90;;;;;;5095039;28;20060;-75
2022/02/18 08:08:45;;;;;;;9.32;3.33;;;4.50;99.90;;;;;;5094898;28;20038;-77
2022/02/18 08:11:16;;;;;;;12.73;3.78;;;4.70;99.90;;;;;;5094924;28;20028;-77
2022/02/18 08:13:42;;;;;;;9.85;2.97;;;4.90;99.90;;;;;;5094823;28;20099;-77
2022/02/18 08:16:09;;;;;;;15.77;2.75;;;4.90;99.90;;;;;;5076818;28;20615;-76
2022/02/18 08:18:37;;;;;;;9.23;2.47;;;4.90;99.90;;;;;;5094784;28;20074;-78
2022/02/18 08:21:03;;;;;;;9.32;3.22;;;5.00;99.90;;;;;;5076223;28;20473;-76
2022/02/18 08:23:29;;;;;;;13.95;3.75;;;4.90;99.90;;;;;;5094494;28;20095;-75
2022/02/18 08:25:54;;;;;;;6.35;2.58;;;5.00;99.90;;;;;;5095675;28;20029;-81
2022/02/18 08:28:20;;;;;;;14.20;3.33;;;5.00;99.90;;;;;;5080803;28;20020;-78
2022/02/18 08:30:46;;;;;;;7.82;3.38;;;5.20;99.90;;;;;;5094876;28;20028;-79
2022/02/18 08:33:12;;;;;;;13.63;4.15;;;5.40;99.90;;;;;;5076891;28;20024;-76
2022/02/18 08:35:38;;;;;;;10.52;4.88;;;5.50;99.90;;;;;;5095241;28;20024;-76
2022/02/18 08:38:04;;;;;;;9.75;4.43;;;5.50;99.90;;;;;;5093823;28;20375;-74
2022/02/18 08:40:31;;;;;;;5.05;3.67;;;5.60;99.90;;;;;;5093936;28;20020;-75
2022/02/18 08:42:57;;;;;;;10.85;3.30;;;5.70;99.90;;;;;;5093847;28;20023;-75
2022/02/18 08:45:23;;;;;;;4.47;2.97;;;5.90;99.90;;;;;;5093875;28;20040;-81
2022/02/18 08:47:49;;;;;;;10.70;2.90;;;5.90;99.90;;;;;;5093664;28;20028;-75
2022/02/18 08:50:16;;;;;;;14.90;4.20;;;6.10;99.90;;;;;;5075751;28;20031;-75
2022/02/18 08:52:43;;;;;;;13.45;3.63;;;6.30;99.90;;;;;;5075769;28;20050;-76
2022/02/18 08:55:11;;;;;;;10.32;3.55;;;6.50;99.90;;;;;;5093577;28;20024;-76
2022/02/18 08:57:38;;;;;;;10.15;3.67;;;6.60;99.90;;;;;;5075830;28;20074;-75
2022/02/18 09:00:05;;;;;;;11.15;3.47;;;6.70;99.90;;;;;;5093749;28;20051;-77
2022/02/18 09:02:31;;;;;;;6.55;3.42;;;6.70;99.90;;;;;;5093815;28;20434;-76
2022/02/18 09:04:57;;;;;;;18.27;4.15;;;6.80;99.90;;;;;;5093978;28;20123;-76
2022/02/18 09:07:24;;;;;;;14.38;4.40;;;6.90;99.90;;;;;;5093841;28;20135;-75
2022/02/18 09:09:50;;;;;;;10.32;4.47;;;7.10;99.90;;;;;;5092980;28;20119;-75
2022/02/18 09:12:16;;;;;;;10.57;4.90;;;7.20;99.90;;;;;;5093611;28;20024;-76
2022/02/18 09:14:42;;;;;;;10.50;4.53;;;7.40;99.90;;;;;;5075389;28;20016;-76
2022/02/18 09:17:07;;;;;;;15.43;4.15;;;7.60;99.90;;;;;;5075111;28;20016;-76
2022/02/18 09:19:33;;;;;;;11.85;3.85;;;7.60;99.90;;;;;;5093549;28;20059;-77
2022/02/18 09:21:59;;;;;;;7.82;4.20;;;7.70;99.90;;;;;;5093423;28;20016;-76
2022/02/18 09:24:25;;;;;;;6.95;3.50;;;7.80;99.90;;;;;;5093243;28;20028;-77
2022/02/18 09:26:51;;;;;;;8.32;3.60;;;7.90;99.90;;;;;;5093141;28;20736;-78
2022/02/18 09:29:17;;;;;;;9.90;4.20;;;8.00;99.90;;;;;;5093233;28;20047;-77
2022/02/18 09:31:44;;;;;;;6.75;3.60;;;8.30;99.90;;;;;;5093054;28;20052;-74
2022/02/18 09:34:09;;;;;;;4.57;2.78;;;8.40;99.50;;;;;;5092401;28;20040;-77
2022/02/18 09:36:35;;;;;;;8.23;3.40;;;8.60;99.40;;;;;;5092351;28;20454;-80
2022/02/18 09:39:02;;;;;;;9.20;3.53;;;8.70;99.60;;;;;;5074593;28;20051;-78
2022/02/18 09:41:28;;;;;;;6.88;3.38;;;8.80;98.80;;;;;;5092559;28;20052;-80
2022/02/18 09:43:59;;;;;;;6.70;3.33;;;9.00;97.90;;;;;;5064635;28;20051;-83
2022/02/18 09:46:26;;;;;;;9.20;3.13;;;9.10;97.20;;;;;;5056290;28;20055;-83
2022/02/18 09:48:52;;;;;;;10.57;3.28;;;9.20;96.50;;;;;;5055547;28;20020;-77
2022/02/18 09:51:19;;;;;;;5.63;3.47;;;9.50;95.60;;;;;;5054448;28;20024;-79
2022/02/18 09:53:45;;;;;;;6.72;4.05;;;9.40;95.10;;;;;;5054358;28;20026;-78
2022/02/18 09:56:10;;;;;;;6.32;2.92;;;9.50;94.90;;;;;;5054653;28;20119;-79
2022/02/18 09:58:38;;;;;;;5.25;2.95;;;9.70;94.40;;;;;;5072702;28;20650;-79
2022/02/18 10:01:04;;;;;;;4.57;2.80;;;9.80;94.10;;;;;;5054828;28;20108;-79
2022/02/18 10:03:30;;;;;;;3.60;2.55;;;9.90;93.80;;;;;;5054231;28;20116;-79
2022/02/18 10:05:56;;;;;;;4.72;2.65;;;10.00;92.60;;;;;;5072165;28;20576;-79
2022/02/18 10:08:22;;;;;;;5.47;2.38;;;10.00;90.70;;;;;;5054346;28;20198;-79
2022/02/18 10:11:05;;;;;;;5.05;2.25;;;10.30;88.70;;;;;;5054046;28;20123;-78
2022/02/18 10:13:39;;;;;;;4.82;2.75;;;10.40;88.10;;;;;;5054208;28;20027;-78
2022/02/18 10:16:09;;;;;;;6.28;2.80;;;10.60;86.00;;;;;;5054106;28;20025;-79
2022/02/18 10:19:08;;;;;;;8.05;2.60;;;10.70;87.80;;;;;;5050856;28;20041;-78
2022/02/18 10:21:35;;;;;;;4.45;2.22;;;10.80;87.80;;;;;;5039839;28;20131;-80
2022/02/18 10:24:17;;;;;;;3.60;2.00;;;11.00;83.30;;;;;;5050823;28;20504;-78
2022/02/18 10:26:49;;;;;;;6.93;3.72;;;11.20;81.90;;;;;;5051831;28;20452;-81
2022/02/18 10:29:25;;;;;;;4.72;2.90;;;11.30;83.90;;;;;;5051778;28;20104;-79
2022/02/18 10:32:14;;;;;;;7.40;3.40;;;11.40;83.10;;;;;;5050659;28;20021;-80
2022/02/18 10:34:57;;;;;;;13.70;6.35;;;11.40;83.40;;;;;;5050691;28;20037;-80
2022/02/18 10:37:27;;;;;;;5.93;3.13;;;11.60;83.30;;;;;;5050823;28;20064;-79
2022/02/18 10:40:08;;;;;;;5.47;1.98;;;11.60;82.20;;;;;;5050666;28;20391;-78
2022/02/18 10:42:34;;;;;;;2.50;2.22;;;11.70;82.30;;;;;;5050755;28;20039;-79
2022/02/18 10:45:29;;;;;;;6.97;2.90;;;11.80;80.80;;;;;;5054779;28;20379;-78
2022/02/18 10:48:07;;;;;;;4.47;1.98;;;11.90;79.30;;;;;;5054762;28;20404;-80
2022/02/18 10:50:33;;;;;;;2.67;1.75;;;12.00;80.10;;;;;;5055852;28;20025;-80
2022/02/18 10:53:16;;;;;;;5.57;2.03;;;12.10;78.20;;;;;;5054633;28;20040;-79
2022/02/18 10:55:56;;;;;;;3.60;1.67;;;12.30;77.40;;;;;;5055734;28;20017;-79
2022/02/18 10:58:23;;;;;;;2.95;2.40;;;12.40;77.20;;;;;;5055821;28;20158;-79
2022/02/18 11:01:08;;;;;;;4.03;1.95;;;12.50;76.40;;;;;;5055690;28;20024;-79
2022/02/18 11:03:35;;;;;;;4.10;2.50;;;12.50;76.00;;;;;;5055647;28;20032;-79
2022/02/18 11:06:17;;;;;;;3.10;2.13;;;12.70;76.60;;;;;;5054366;28;20041;-79
2022/02/18 11:08:51;;;;;;;12.18;6.43;;;12.80;76.40;;;;;;5053664;28;20017;-79
2022/02/18 11:11:18;;;;;;;11.32;4.85;;;13.10;76.90;;;;;;5054195;28;20458;-80
2022/02/18 11:13:44;;;;;;;4.43;2.83;;;13.40;77.90;;;;;;5055078;28;20021;-79
2022/02/18 11:16:14;;;;;;;5.43;1.77;;;13.70;74.70;;;;;;5055344;28;20025;-79
2022/02/18 11:18:41;;;;;;;4.18;2.03;;;13.90;74.70;;;;;;5054089;28;20152;-78
2022/02/18 11:21:08;;;;;;;8.93;3.63;;;13.90;73.90;;;;;;5055307;28;20150;-77
2022/02/18 11:23:35;;;;;;;5.38;2.75;;;14.00;73.20;;;;;;5053957;28;20115;-78
2022/02/18 11:26:01;;;;;;;5.00;2.65;;;14.00;75.30;;;;;;5055288;28;20033;-79
2022/02/18 11:28:30;;;;;;;4.97;2.90;;;14.20;73.90;;;;;;5055180;28;20029;-80
2022/02/18 11:31:07;;;;;;;5.45;3.13;;;14.30;74.70;;;;;;5053879;28;20033;-79
2022/02/18 11:33:38;;;;;;;8.85;4.75;;;14.30;75.10;;;;;;5055523;28;20037;-78
2022/02/18 11:36:25;;;;;;;4.82;3.20;;;14.30;74.50;;;;;;5055109;28;20021;-78
2022/02/18 11:39:01;;;;;;;8.90;3.67;;;14.30;72.60;;;;;;5055085;28;20029;-78
2022/02/18 11:42:04;;;;;;;5.60;3.03;;;14.30;73.80;;;;;;5054909;28;20086;-78
2022/02/18 11:44:32;;;;;;;6.05;2.90;;;14.30;72.70;;;;;;5054534;28;20021;-79
2022/02/18 11:47:16;;;;;;;5.35;2.80;;;14.30;74.60;;;;;;5054635;28;20561;-78
2022/02/18 11:49:42;;;;;;;4.03;2.65;;;14.40;73.40;;;;;;5054602;28;20021;-77
2022/02/18 11:52:11;;;;;;;4.95;2.97;;;14.50;73.40;;;;;;5053055;28;20027;-76
2022/02/18 11:54:37;;;;;;;6.30;4.18;;;14.60;74.10;;;;;;5054778;28;20049;-79
2022/02/18 11:57:08;;;;;;;5.53;2.70;;;14.70;72.50;;;;;;5052977;28;20074;-77
2022/02/18 12:00:03;;;;;;;11.90;6.53;;;14.70;72.10;;;;;;5053598;28;20060;-78
2022/02/18 12:02:45;;;;;;;7.07;3.13;;;14.60;72.30;;;;;;5053622;28;20064;-78
2022/02/18 12:05:12;;;;;;;5.53;3.95;;;14.70;71.00;;;;;;5053044;28;20048;-80
2022/02/18 12:07:41;;;;;;;5.97;3.67;;;14.80;71.20;;;;;;5054428;28;20432;-77
2022/02/18 12:10:09;;;;;;;5.53;3.60;;;14.80;70.40;;;;;;5054472;28;20029;-78
2022/02/18 12:12:39;;;;;;;3.47;2.72;;;14.80;71.70;;;;;;5053020;28;20043;-79
2022/02/18 12:15:13;;;;;;;4.10;3.70;;;14.80;71.30;;;;;;5054127;28;20120;-78
2022/02/18 12:17:43;;;;;;;12.75;7.88;;;14.80;70.40;;;;;;5060408;28;20514;-78
2022/02/18 12:20:30;;;;;;;8.55;5.75;;;14.80;70.30;;;;;;5056154;28;20035;-78
2022/02/18 12:22:57;;;;;;;4.00;2.45;;;14.80;70.10;;;;;;5055596;28;20487;-78
2022/02/18 12:25:28;;;;;;;4.15;2.20;;;14.80;70.00;;;;;;5074069;28;20381;-79
2022/02/18 12:28:16;;;;;;;8.57;3.47;;;14.80;68.60;;;;;;5074113;28;20013;-78
2022/02/18 12:30:43;;;;;;;8.02;5.03;;;14.70;69.50;;;;;;5055910;28;20455;-80
2022/02/18 12:33:09;;;;;;;5.28;2.75;;;14.70;70.40;;;;;;5074144;28;20451;-78
2022/02/18 12:35:35;;;;;;;2.97;2.05;;;14.70;69.60;;;;;;5055791;28;20034;-78
2022/02/18 12:38:04;;;;;;;3.60;2.30;;;14.80;69.60;;;;;;5073922;28;20020;-80
2022/02/18 12:40:33;;;;;;;8.32;5.63;;;14.80;68.80;;;;;;5073901;28;20025;-76
2022/02/18 12:43:01;;;;;;;8.35;5.88;;;14.80;69.20;;;;;;5055877;28;20371;-78
2022/02/18 12:45:39;;;;;;;9.02;5.30;;;14.90;69.00;;;;;;5073599;28;20119;-78
2022/02/18 12:48:05;;;;;;;12.82;7.65;;;14.90;69.80;;;;;;5073869;28;20497;-75
2022/02/18 12:50:37;;;;;;;11.45;7.28;;;14.90;69.20;;;;;;5055729;28;20051;-77
2022/02/18 12:53:03;;;;;;;9.02;5.97;;;15.00;69.20;;;;;;5055788;28;20024;-78
2022/02/18 12:55:33;;;;;;;10.90;6.43;;;15.00;69.60;;;;;;5073307;28;20033;-78